sensor_id;sensor_type;location;lat;lon;timestamp;pressure;altitude;pressure_sealevel;temperature;humidity
74466;BME280;62916;50.044;15.938;2023-02-28T00:02:13;100248.54;;;19.87;52.18
74466;BME280;62916;50.044;15.938;2023-02-28T00:04:44;100248.17;;;19.84;52.21
74466;BME280;62916;50.044;15.938;2023-02-28T00:07:15;100246.66;;;19.83;52.22
74466;BME280;62916;50.044;15.938;2023-02-28T00:09:46;100251.01;;;19.80;52.27
74466;BME280;62916;50.044;15.938;2023-02-28T00:12:16;100251.80;;;19.78;52.25
74466;BME280;62916;50.044;15.938;2023-02-28T00:14:47;100249.60;;;19.77;52.30
74466;BME280;62916;50.044;15.938;2023-02-28T00:17:18;100247.72;;;19.72;52.49
74466;BME280;62916;50.044;15.938;2023-02-28T00:19:50;100247.89;;;19.73;52.42
74466;BME280;62916;50.044;15.938;2023-02-28T00:22:22;100249.92;;;19.72;52.42
74466;BME280;62916;50.044;15.938;2023-02-28T00:24:53;100251.10;;;19.72;52.46
74466;BME280;62916;50.044;15.938;2023-02-28T00:27:23;100250.94;;;19.70;52.32
74466;BME280;62916;50.044;15.938;2023-02-28T00:29:54;100252.28;;;19.71;52.33
74466;BME280;62916;50.044;15.938;2023-02-28T00:32:25;100256.45;;;19.69;52.43
74466;BME280;62916;50.044;15.938;2023-02-28T00:34:56;100253.48;;;19.67;52.39
74466;BME280;62916;50.044;15.938;2023-02-28T00:37:27;100254.54;;;19.67;52.35
74466;BME280;62916;50.044;15.938;2023-02-28T00:39:58;100256.85;;;19.65;52.38
74466;BME280;62916;50.044;15.938;2023-02-28T00:42:29;100258.80;;;19.62;52.48
74466;BME280;62916;50.044;15.938;2023-02-28T00:45:00;100261.66;;;19.61;52.52
74466;BME280;62916;50.044;15.938;2023-02-28T00:47:33;100258.06;;;19.58;52.53
74466;BME280;62916;50.044;15.938;2023-02-28T00:50:06;100261.61;;;19.56;52.55
74466;BME280;62916;50.044;15.938;2023-02-28T00:52:38;100260.11;;;19.54;52.70
74466;BME280;62916;50.044;15.938;2023-02-28T00:55:10;100263.33;;;19.52;52.50
74466;BME280;62916;50.044;15.938;2023-02-28T00:57:41;100258.39;;;19.50;52.61
74466;BME280;62916;50.044;15.938;2023-02-28T01:00:14;100263.80;;;19.47;52.66
74466;BME280;62916;50.044;15.938;2023-02-28T01:02:45;100264.60;;;19.45;52.70
74466;BME280;62916;50.044;15.938;2023-02-28T01:05:16;100266.41;;;19.43;52.69
74466;BME280;62916;50.044;15.938;2023-02-28T01:07:47;100265.35;;;19.41;52.70
74466;BME280;62916;50.044;15.938;2023-02-28T01:10:19;100265.41;;;19.40;52.74
74466;BME280;62916;50.044;15.938;2023-02-28T01:12:50;100268.05;;;19.39;52.86
74466;BME280;62916;50.044;15.938;2023-02-28T01:15:21;100267.73;;;19.38;52.84
74466;BME280;62916;50.044;15.938;2023-02-28T01:17:52;100267.20;;;19.37;52.83
74466;BME280;62916;50.044;15.938;2023-02-28T01:20:23;100252.83;;;19.26;52.97
74466;BME280;62916;50.044;15.938;2023-02-28T01:22:54;100268.63;;;19.34;52.94
74466;BME280;62916;50.044;15.938;2023-02-28T01:25:25;100267.02;;;19.31;52.90
74466;BME280;62916;50.044;15.938;2023-02-28T01:27:56;100263.30;;;19.31;52.91
74466;BME280;62916;50.044;15.938;2023-02-28T01:30:27;100264.48;;;19.30;52.99
74466;BME280;62916;50.044;15.938;2023-02-28T01:32:57;100263.23;;;19.28;53.03
74466;BME280;62916;50.044;15.938;2023-02-28T01:35:31;100265.26;;;19.26;53.06
74466;BME280;62916;50.044;15.938;2023-02-28T01:38:02;100263.85;;;19.25;53.05
74466;BME280;62916;50.044;15.938;2023-02-28T01:40:50;100263.38;;;19.23;53.05
74466;BME280;62916;50.044;15.938;2023-02-28T01:43:24;100265.52;;;19.21;53.14
74466;BME280;62916;50.044;15.938;2023-02-28T01:45:56;100262.98;;;19.19;53.23
74466;BME280;62916;50.044;15.938;2023-02-28T01:48:29;100259.60;;;19.17;53.28
74466;BME280;62916;50.044;15.938;2023-02-28T01:51:02;100249.38;;;19.12;53.23
74466;BME280;62916;50.044;15.938;2023-02-28T01:53:39;100256.62;;;19.17;53.15
74466;BME280;62916;50.044;15.938;2023-02-28T01:56:15;100255.04;;;19.16;53.14
74466;BME280;62916;50.044;15.938;2023-02-28T01:58:50;100253.52;;;19.14;53.23
74466;BME280;62916;50.044;15.938;2023-02-28T02:01:24;100253.83;;;19.13;53.22
74466;BME280;62916;50.044;15.938;2023-02-28T02:04:00;100252.77;;;19.11;53.23
74466;BME280;62916;50.044;15.938;2023-02-28T02:06:35;100252.15;;;19.10;53.25
74466;BME280;62916;50.044;15.938;2023-02-28T02:09:08;100251.19;;;19.10;53.28
74466;BME280;62916;50.044;15.938;2023-02-28T02:11:40;100249.60;;;19.10;53.29
74466;BME280;62916;50.044;15.938;2023-02-28T02:14:30;100247.30;;;19.09;53.23
74466;BME280;62916;50.044;15.938;2023-02-28T02:17:14;100249.11;;;19.10;53.25
74466;BME280;62916;50.044;15.938;2023-02-28T02:23:11;100244.94;;;19.13;53.32
74466;BME280;62916;50.044;15.938;2023-02-28T02:25:52;100247.17;;;19.15;53.31
74466;BME280;62916;50.044;15.938;2023-02-28T02:28:53;100248.91;;;19.18;53.27
74466;BME280;62916;50.044;15.938;2023-02-28T02:31:50;100251.67;;;19.22;53.26
74466;BME280;62916;50.044;15.938;2023-02-28T02:34:39;100254.12;;;19.25;53.25
74466;BME280;62916;50.044;15.938;2023-02-28T02:37:18;100251.14;;;19.27;53.21
74466;BME280;62916;50.044;15.938;2023-02-28T02:39:54;100252.77;;;19.29;53.21
74466;BME280;62916;50.044;15.938;2023-02-28T02:42:31;100254.07;;;19.32;53.19
74466;BME280;62916;50.044;15.938;2023-02-28T02:45:08;100251.17;;;19.35;53.12
74466;BME280;62916;50.044;15.938;2023-02-28T02:47:42;100250.67;;;19.37;53.09
74466;BME280;62916;50.044;15.938;2023-02-28T02:50:17;100249.66;;;19.39;53.16
74466;BME280;62916;50.044;15.938;2023-02-28T02:52:53;100239.31;;;19.33;53.12
74466;BME280;62916;50.044;15.938;2023-02-28T02:55:26;100248.24;;;19.42;53.10
74466;BME280;62916;50.044;15.938;2023-02-28T02:58:01;100247.82;;;19.44;53.03
74466;BME280;62916;50.044;15.938;2023-02-28T03:00:37;100245.58;;;19.45;52.99
74466;BME280;62916;50.044;15.938;2023-02-28T03:03:13;100245.06;;;19.46;52.98
74466;BME280;62916;50.044;15.938;2023-02-28T03:05:48;100249.06;;;19.45;52.89
74466;BME280;62916;50.044;15.938;2023-02-28T03:08:19;100248.91;;;19.47;52.88
74466;BME280;62916;50.044;15.938;2023-02-28T03:10:52;100250.50;;;19.50;52.91
74466;BME280;62916;50.044;15.938;2023-02-28T03:13:54;100252.64;;;19.50;52.77
74466;BME280;62916;50.044;15.938;2023-02-28T03:16:35;100252.31;;;19.52;52.74
74466;BME280;62916;50.044;15.938;2023-02-28T03:19:20;100255.31;;;19.55;52.62
74466;BME280;62916;50.044;15.938;2023-02-28T03:22:06;100255.19;;;19.57;52.68
74466;BME280;62916;50.044;15.938;2023-02-28T03:24:45;100250.64;;;19.57;52.66
74466;BME280;62916;50.044;15.938;2023-02-28T03:27:23;100254.35;;;19.56;52.65
74466;BME280;62916;50.044;15.938;2023-02-28T03:29:59;100257.80;;;19.55;52.66
74466;BME280;62916;50.044;15.938;2023-02-28T03:32:35;100254.48;;;19.54;52.70
74466;BME280;62916;50.044;15.938;2023-02-28T03:35:14;100255.05;;;19.54;52.78
74466;BME280;62916;50.044;15.938;2023-02-28T03:37:53;100249.36;;;19.54;52.70
74466;BME280;62916;50.044;15.938;2023-02-28T03:40:32;100249.88;;;19.53;52.75
74466;BME280;62916;50.044;15.938;2023-02-28T03:43:09;100245.15;;;19.49;52.86
74466;BME280;62916;50.044;15.938;2023-02-28T03:45:44;100244.54;;;19.50;52.83
74466;BME280;62916;50.044;15.938;2023-02-28T03:48:21;100245.66;;;19.47;52.75
74466;BME280;62916;50.044;15.938;2023-02-28T03:50:55;100253.60;;;19.49;52.77
74466;BME280;62916;50.044;15.938;2023-02-28T03:53:30;100249.96;;;19.47;52.90
74466;BME280;62916;50.044;15.938;2023-02-28T03:56:09;100253.45;;;19.47;52.69
74466;BME280;62916;50.044;15.938;2023-02-28T03:58:47;100246.88;;;19.47;52.85
74466;BME280;62916;50.044;15.938;2023-02-28T04:01:23;100250.55;;;19.48;52.72
74466;BME280;62916;50.044;15.938;2023-02-28T04:03:56;100247.98;;;19.46;52.78
74466;BME280;62916;50.044;15.938;2023-02-28T04:06:27;100252.10;;;19.45;52.66
74466;BME280;62916;50.044;15.938;2023-02-28T04:08:58;100240.16;;;19.35;52.72
74466;BME280;62916;50.044;15.938;2023-02-28T04:11:33;100247.30;;;19.36;52.83
74466;BME280;62916;50.044;15.938;2023-02-28T04:14:06;100252.02;;;19.40;52.84
74466;BME280;62916;50.044;15.938;2023-02-28T04:16:39;100248.20;;;19.36;52.84
74466;BME280;62916;50.044;15.938;2023-02-28T04:19:12;100254.16;;;19.39;52.95
74466;BME280;62916;50.044;15.938;2023-02-28T04:21:45;100253.83;;;19.37;52.96
74466;BME280;62916;50.044;15.938;2023-02-28T04:24:17;100255.17;;;19.37;52.85
74466;BME280;62916;50.044;15.938;2023-02-28T04:26:50;100254.66;;;19.37;52.80
74466;BME280;62916;50.044;15.938;2023-02-28T04:29:23;100256.29;;;19.37;52.88
74466;BME280;62916;50.044;15.938;2023-02-28T04:31:54;100254.27;;;19.37;52.71
74466;BME280;62916;50.044;15.938;2023-02-28T04:34:28;100259.50;;;19.35;52.70
74466;BME280;62916;50.044;15.938;2023-02-28T04:36:59;100259.17;;;19.33;52.72
74466;BME280;62916;50.044;15.938;2023-02-28T04:39:42;100261.16;;;19.32;52.76
74466;BME280;62916;50.044;15.938;2023-02-28T04:42:14;100246.33;;;19.19;52.73
74466;BME280;62916;50.044;15.938;2023-02-28T04:44:45;100264.92;;;19.26;52.80
74466;BME280;62916;50.044;15.938;2023-02-28T04:47:17;100262.27;;;19.24;52.85
74466;BME280;62916;50.044;15.938;2023-02-28T04:49:47;100263.15;;;19.22;52.96
74466;BME280;62916;50.044;15.938;2023-02-28T04:52:18;100266.80;;;19.19;53.05
74466;BME280;62916;50.044;15.938;2023-02-28T04:54:49;100269.95;;;19.17;53.26
74466;BME280;62916;50.044;15.938;2023-02-28T04:57:20;100270.34;;;19.14;53.40
74466;BME280;62916;50.044;15.938;2023-02-28T04:59:52;100267.31;;;19.13;53.52
74466;BME280;62916;50.044;15.938;2023-02-28T05:02:22;100255.41;;;19.05;53.54
74466;BME280;62916;50.044;15.938;2023-02-28T05:04:54;100270.04;;;19.12;53.44
74466;BME280;62916;50.044;15.938;2023-02-28T05:07:26;100269.80;;;19.10;53.64
74466;BME280;62916;50.044;15.938;2023-02-28T05:09:56;100273.29;;;19.09;53.68
74466;BME280;62916;50.044;15.938;2023-02-28T05:12:30;100278.23;;;19.09;53.79
74466;BME280;62916;50.044;15.938;2023-02-28T05:15:01;100281.95;;;19.07;53.89
74466;BME280;62916;50.044;15.938;2023-02-28T05:17:31;100281.66;;;19.06;53.91
74466;BME280;62916;50.044;15.938;2023-02-28T05:20:02;100285.71;;;19.04;53.82
74466;BME280;62916;50.044;15.938;2023-02-28T05:22:44;100287.81;;;19.02;54.01
74466;BME280;62916;50.044;15.938;2023-02-28T05:25:18;100293.77;;;18.99;54.17
74466;BME280;62916;50.044;15.938;2023-02-28T05:27:49;100296.51;;;18.97;54.16
74466;BME280;62916;50.044;15.938;2023-02-28T05:30:20;100304.77;;;18.95;54.17
74466;BME280;62916;50.044;15.938;2023-02-28T05:32:53;100307.64;;;18.95;54.15
74466;BME280;62916;50.044;15.938;2023-02-28T05:35:26;100312.42;;;18.95;54.13
74466;BME280;62916;50.044;15.938;2023-02-28T05:37:57;100313.33;;;18.94;53.97
74466;BME280;62916;50.044;15.938;2023-02-28T05:40:28;100310.98;;;18.92;53.91
74466;BME280;62916;50.044;15.938;2023-02-28T05:42:59;100316.61;;;18.93;53.81
74466;BME280;62916;50.044;15.938;2023-02-28T05:45:30;100324.52;;;18.91;53.76
74466;BME280;62916;50.044;15.938;2023-02-28T05:48:00;100328.23;;;18.90;53.67
74466;BME280;62916;50.044;15.938;2023-02-28T05:50:31;100327.78;;;18.89;53.72
74466;BME280;62916;50.044;15.938;2023-02-28T05:53:02;100329.01;;;18.87;53.55
74466;BME280;62916;50.044;15.938;2023-02-28T05:55:32;100333.72;;;18.86;53.57
74466;BME280;62916;50.044;15.938;2023-02-28T05:58:05;100332.43;;;18.84;53.43
74466;BME280;62916;50.044;15.938;2023-02-28T06:00:36;100338.02;;;18.82;53.37
74466;BME280;62916;50.044;15.938;2023-02-28T06:03:09;100336.33;;;18.80;53.35
74466;BME280;62916;50.044;15.938;2023-02-28T06:05:41;100338.50;;;18.77;53.34
74466;BME280;62916;50.044;15.938;2023-02-28T06:08:12;100340.98;;;18.77;53.33
74466;BME280;62916;50.044;15.938;2023-02-28T06:10:43;100341.65;;;18.78;53.29
74466;BME280;62916;50.044;15.938;2023-02-28T06:13:14;100342.49;;;18.78;53.13
74466;BME280;62916;50.044;15.938;2023-02-28T06:15:45;100349.30;;;18.78;53.10
74466;BME280;62916;50.044;15.938;2023-02-28T06:18:16;100351.27;;;18.77;53.06
74466;BME280;62916;50.044;15.938;2023-02-28T06:20:53;100344.00;;;18.73;53.20
74466;BME280;62916;50.044;15.938;2023-02-28T06:23:25;100353.80;;;18.79;53.14
74466;BME280;62916;50.044;15.938;2023-02-28T06:25:56;100356.05;;;18.80;52.98
74466;BME280;62916;50.044;15.938;2023-02-28T06:28:27;100362.35;;;18.82;53.05
74466;BME280;62916;50.044;15.938;2023-02-28T06:30:58;100359.76;;;18.85;53.16
74466;BME280;62916;50.044;15.938;2023-02-28T06:33:29;100357.42;;;18.90;53.01
74466;BME280;62916;50.044;15.938;2023-02-28T06:35:59;100343.47;;;18.84;52.96
74466;BME280;62916;50.044;15.938;2023-02-28T06:38:31;100363.36;;;18.94;52.93
74466;BME280;62916;50.044;15.938;2023-02-28T06:41:02;100359.48;;;18.95;52.86
74466;BME280;62916;50.044;15.938;2023-02-28T06:43:36;100360.39;;;18.97;52.93
74466;BME280;62916;50.044;15.938;2023-02-28T06:46:11;100363.05;;;19.00;52.88
74466;BME280;62916;50.044;15.938;2023-02-28T06:48:44;100364.85;;;19.02;52.76
74466;BME280;62916;50.044;15.938;2023-02-28T06:51:18;100365.61;;;19.04;52.71
74466;BME280;62916;50.044;15.938;2023-02-28T06:53:51;100367.36;;;19.06;52.74
74466;BME280;62916;50.044;15.938;2023-02-28T06:56:22;100365.80;;;19.09;52.69
74466;BME280;62916;50.044;15.938;2023-02-28T06:58:53;100368.78;;;19.12;52.60
74466;BME280;62916;50.044;15.938;2023-02-28T07:01:24;100372.75;;;19.14;52.50
74466;BME280;62916;50.044;15.938;2023-02-28T07:03:57;100374.17;;;19.16;52.46
74466;BME280;62916;50.044;15.938;2023-02-28T07:06:29;100376.14;;;19.16;52.40
74466;BME280;62916;50.044;15.938;2023-02-28T07:09:00;100370.17;;;19.13;52.61
74466;BME280;62916;50.044;15.938;2023-02-28T07:11:31;100378.06;;;19.19;52.41
74466;BME280;62916;50.044;15.938;2023-02-28T07:14:01;100375.65;;;19.20;52.28
74466;BME280;62916;50.044;15.938;2023-02-28T07:16:32;100376.61;;;19.20;52.26
74466;BME280;62916;50.044;15.938;2023-02-28T07:19:03;100376.72;;;19.20;52.26
74466;BME280;62916;50.044;15.938;2023-02-28T07:21:34;100377.56;;;19.20;52.14
74466;BME280;62916;50.044;15.938;2023-02-28T07:24:06;100380.37;;;19.20;52.03
74466;BME280;62916;50.044;15.938;2023-02-28T07:26:37;100381.83;;;19.23;52.14
74466;BME280;62916;50.044;15.938;2023-02-28T07:29:08;100389.92;;;19.25;52.09
74466;BME280;62916;50.044;15.938;2023-02-28T07:31:39;100390.21;;;19.25;51.99
74466;BME280;62916;50.044;15.938;2023-02-28T07:34:10;100391.27;;;19.25;51.99
74466;BME280;62916;50.044;15.938;2023-02-28T07:36:41;100388.92;;;19.23;51.96
74466;BME280;62916;50.044;15.938;2023-02-28T07:39:12;100394.38;;;19.22;51.89
74466;BME280;62916;50.044;15.938;2023-02-28T07:41:43;100398.94;;;19.21;51.92
74466;BME280;62916;50.044;15.938;2023-02-28T07:44:14;100391.73;;;19.19;51.97
74466;BME280;62916;50.044;15.938;2023-02-28T07:46:45;100398.36;;;19.19;51.86
74466;BME280;62916;50.044;15.938;2023-02-28T07:49:17;100400.15;;;19.18;51.94
74466;BME280;62916;50.044;15.938;2023-02-28T07:51:48;100401.90;;;19.18;51.89
74466;BME280;62916;50.044;15.938;2023-02-28T07:54:18;100403.81;;;19.18;51.89
74466;BME280;62916;50.044;15.938;2023-02-28T07:56:49;100402.81;;;19.17;51.84
74466;BME280;62916;50.044;15.938;2023-02-28T07:59:20;100404.94;;;19.17;51.85
74466;BME280;62916;50.044;15.938;2023-02-28T08:01:51;100404.71;;;19.17;51.79
74466;BME280;62916;50.044;15.938;2023-02-28T08:04:22;100406.39;;;19.17;51.79
74466;BME280;62916;50.044;15.938;2023-02-28T08:06:53;100404.15;;;19.16;51.75
74466;BME280;62916;50.044;15.938;2023-02-28T08:09:25;100401.39;;;19.14;51.70
74466;BME280;62916;50.044;15.938;2023-02-28T08:11:56;100403.48;;;19.13;51.64
74466;BME280;62916;50.044;15.938;2023-02-28T08:14:27;100402.77;;;19.12;51.63
74466;BME280;62916;50.044;15.938;2023-02-28T08:16:58;100404.45;;;19.12;51.60
74466;BME280;62916;50.044;15.938;2023-02-28T08:19:29;100398.60;;;19.09;51.61
74466;BME280;62916;50.044;15.938;2023-02-28T08:22:01;100404.33;;;19.10;51.56
74466;BME280;62916;50.044;15.938;2023-02-28T08:24:32;100408.14;;;19.08;51.61
74466;BME280;62916;50.044;15.938;2023-02-28T08:27:03;100403.08;;;19.06;51.65
74466;BME280;62916;50.044;15.938;2023-02-28T08:29:33;100402.39;;;19.05;51.51
74466;BME280;62916;50.044;15.938;2023-02-28T08:32:05;100403.59;;;19.04;51.64
74466;BME280;62916;50.044;15.938;2023-02-28T08:34:49;100407.81;;;19.02;51.54
74466;BME280;62916;50.044;15.938;2023-02-28T08:37:19;100408.87;;;19.00;51.54
74466;BME280;62916;50.044;15.938;2023-02-28T08:39:51;100410.49;;;18.98;51.55
74466;BME280;62916;50.044;15.938;2023-02-28T08:42:25;100409.20;;;18.96;51.64
74466;BME280;62916;50.044;15.938;2023-02-28T08:44:56;100409.52;;;18.95;51.71
74466;BME280;62916;50.044;15.938;2023-02-28T08:47:27;100408.52;;;18.93;51.68
74466;BME280;62916;50.044;15.938;2023-02-28T08:49:58;100409.09;;;18.92;51.65
74466;BME280;62916;50.044;15.938;2023-02-28T08:52:29;100409.98;;;18.90;51.63
74466;BME280;62916;50.044;15.938;2023-02-28T08:54:59;100407.05;;;18.89;51.70
74466;BME280;62916;50.044;15.938;2023-02-28T08:57:30;100409.40;;;18.87;51.72
74466;BME280;62916;50.044;15.938;2023-02-28T09:00:03;100405.40;;;18.86;51.68
74466;BME280;62916;50.044;15.938;2023-02-28T09:02:34;100405.91;;;18.84;51.69
74466;BME280;62916;50.044;15.938;2023-02-28T09:05:08;100406.88;;;18.83;51.65
74466;BME280;62916;50.044;15.938;2023-02-28T09:07:39;100401.48;;;18.83;51.70
74466;BME280;62916;50.044;15.938;2023-02-28T09:10:12;100403.67;;;18.82;51.64
74466;BME280;62916;50.044;15.938;2023-02-28T09:12:43;100380.75;;;18.66;51.62
74466;BME280;62916;50.044;15.938;2023-02-28T09:15:16;100397.97;;;18.75;51.67
74466;BME280;62916;50.044;15.938;2023-02-28T09:17:46;100403.48;;;18.79;51.72
74466;BME280;62916;50.044;15.938;2023-02-28T09:20:18;100398.32;;;18.79;51.63
74466;BME280;62916;50.044;15.938;2023-02-28T09:22:49;100395.85;;;18.79;51.57
74466;BME280;62916;50.044;15.938;2023-02-28T09:25:20;100396.06;;;18.77;51.59
74466;BME280;62916;50.044;15.938;2023-02-28T09:27:50;100393.25;;;18.76;51.53
74466;BME280;62916;50.044;15.938;2023-02-28T09:30:22;100390.48;;;18.75;51.57
74466;BME280;62916;50.044;15.938;2023-02-28T09:32:53;100389.26;;;18.76;51.63
74466;BME280;62916;50.044;15.938;2023-02-28T09:35:24;100389.42;;;18.77;51.60
74466;BME280;62916;50.044;15.938;2023-02-28T09:37:56;100391.16;;;18.76;51.61
74466;BME280;62916;50.044;15.938;2023-02-28T09:40:28;100389.09;;;18.78;51.66
74466;BME280;62916;50.044;15.938;2023-02-28T09:43:00;100389.21;;;18.79;51.65
74466;BME280;62916;50.044;15.938;2023-02-28T09:45:33;100387.48;;;18.81;51.55
74466;BME280;62916;50.044;15.938;2023-02-28T09:48:12;100389.77;;;18.84;51.64
74466;BME280;62916;50.044;15.938;2023-02-28T09:50:48;100388.10;;;18.86;51.55
74466;BME280;62916;50.044;15.938;2023-02-28T09:53:26;100389.95;;;18.88;51.66
74466;BME280;62916;50.044;15.938;2023-02-28T09:56:01;100392.27;;;18.92;51.60
74466;BME280;62916;50.044;15.938;2023-02-28T09:58:39;100389.51;;;18.94;51.57
74466;BME280;62916;50.044;15.938;2023-02-28T10:01:22;100392.16;;;18.94;51.51
74466;BME280;62916;50.044;15.938;2023-02-28T10:03:58;100398.86;;;18.99;51.48
74466;BME280;62916;50.044;15.938;2023-02-28T10:06:35;100400.50;;;19.02;51.45
74466;BME280;62916;50.044;15.938;2023-02-28T10:09:13;100398.18;;;19.03;51.48
74466;BME280;62916;50.044;15.938;2023-02-28T10:11:46;100401.33;;;19.04;51.55
74466;BME280;62916;50.044;15.938;2023-02-28T10:14:21;100401.49;;;19.05;51.48
74466;BME280;62916;50.044;15.938;2023-02-28T10:16:55;100406.11;;;19.08;51.58
74466;BME280;62916;50.044;15.938;2023-02-28T10:19:30;100404.55;;;19.09;51.49
74466;BME280;62916;50.044;15.938;2023-02-28T10:22:08;100406.41;;;19.10;51.52
74466;BME280;62916;50.044;15.938;2023-02-28T10:24:43;100406.20;;;19.12;51.55
74466;BME280;62916;50.044;15.938;2023-02-28T10:27:17;100402.92;;;19.10;51.51
74466;BME280;62916;50.044;15.938;2023-02-28T10:29:51;100404.92;;;19.14;51.46
74466;BME280;62916;50.044;15.938;2023-02-28T10:32:24;100404.09;;;19.17;51.51
74466;BME280;62916;50.044;15.938;2023-02-28T10:34:59;100392.23;;;19.15;51.38
74466;BME280;62916;50.044;15.938;2023-02-28T10:37:30;100401.23;;;19.23;51.38
74466;BME280;62916;50.044;15.938;2023-02-28T10:40:01;100392.63;;;19.26;51.38
74466;BME280;62916;50.044;15.938;2023-02-28T10:42:35;100393.20;;;19.28;51.28
74466;BME280;62916;50.044;15.938;2023-02-28T10:45:13;100387.17;;;19.28;51.25
74466;BME280;62916;50.044;15.938;2023-02-28T10:47:53;100383.18;;;19.32;51.18
74466;BME280;62916;50.044;15.938;2023-02-28T10:50:46;100383.95;;;19.35;51.04
74466;BME280;62916;50.044;15.938;2023-02-28T10:53:39;100380.30;;;19.35;51.13
74466;BME280;62916;50.044;15.938;2023-02-28T10:56:30;100377.70;;;19.36;51.05
74466;BME280;62916;50.044;15.938;2023-02-28T10:59:20;100378.38;;;19.35;51.00
74466;BME280;62916;50.044;15.938;2023-02-28T11:01:52;100377.03;;;19.35;51.02
74466;BME280;62916;50.044;15.938;2023-02-28T11:04:36;100377.76;;;19.35;50.96
74466;BME280;62916;50.044;15.938;2023-02-28T11:07:20;100372.36;;;19.34;51.09
74466;BME280;62916;50.044;15.938;2023-02-28T11:09:55;100371.85;;;19.34;51.03
74466;BME280;62916;50.044;15.938;2023-02-28T11:12:28;100367.35;;;19.34;51.04
74466;BME280;62916;50.044;15.938;2023-02-28T11:15:03;100364.98;;;19.36;50.98
74466;BME280;62916;50.044;15.938;2023-02-28T11:17:37;100363.53;;;19.38;50.91
74466;BME280;62916;50.044;15.938;2023-02-28T11:20:18;100360.38;;;19.37;50.87
74466;BME280;62916;50.044;15.938;2023-02-28T11:22:49;100359.53;;;19.37;50.91
74466;BME280;62916;50.044;15.938;2023-02-28T11:25:24;100360.55;;;19.37;50.92
74466;BME280;62916;50.044;15.938;2023-02-28T11:27:57;100347.05;;;19.32;50.84
74466;BME280;62916;50.044;15.938;2023-02-28T11:30:36;100353.63;;;19.37;50.84
74466;BME280;62916;50.044;15.938;2023-02-28T11:33:25;100349.02;;;19.39;50.84
74466;BME280;62916;50.044;15.938;2023-02-28T11:36:00;100345.52;;;19.38;50.77
74466;BME280;62916;50.044;15.938;2023-02-28T11:38:34;100340.74;;;19.39;50.72
74466;BME280;62916;50.044;15.938;2023-02-28T11:41:19;100339.34;;;19.38;50.67
74466;BME280;62916;50.044;15.938;2023-02-28T11:44:03;100334.89;;;19.38;50.69
74466;BME280;62916;50.044;15.938;2023-02-28T11:46:41;100334.61;;;19.37;50.72
74466;BME280;62916;50.044;15.938;2023-02-28T11:49:26;100332.02;;;19.34;50.71
74466;BME280;62916;50.044;15.938;2023-02-28T11:52:05;100332.71;;;19.32;50.69
74466;BME280;62916;50.044;15.938;2023-02-28T11:54:57;100330.35;;;19.30;50.65
74466;BME280;62916;50.044;15.938;2023-02-28T11:57:50;100330.52;;;19.29;50.72
74466;BME280;62916;50.044;15.938;2023-02-28T12:00:35;100331.98;;;19.27;50.72
74466;BME280;62916;50.044;15.938;2023-02-28T12:03:17;100334.28;;;19.25;50.66
74466;BME280;62916;50.044;15.938;2023-02-28T12:05:56;100330.79;;;19.25;50.74
74466;BME280;62916;50.044;15.938;2023-02-28T12:08:42;100325.52;;;19.23;50.74
74466;BME280;62916;50.044;15.938;2023-02-28T12:11:23;100324.74;;;19.22;50.76
74466;BME280;62916;50.044;15.938;2023-02-28T12:14:10;100327.73;;;19.20;50.73
74466;BME280;62916;50.044;15.938;2023-02-28T12:16:59;100321.03;;;19.20;50.72
74466;BME280;62916;50.044;15.938;2023-02-28T12:19:39;100317.94;;;19.20;50.73
74466;BME280;62916;50.044;15.938;2023-02-28T12:22:26;100317.09;;;19.17;50.76
74466;BME280;62916;50.044;15.938;2023-02-28T12:28:06;100313.45;;;19.13;50.79
74466;BME280;62916;50.044;15.938;2023-02-28T12:30:44;100311.42;;;19.12;50.74
74466;BME280;62916;50.044;15.938;2023-02-28T12:33:18;100309.39;;;19.11;50.74
74466;BME280;62916;50.044;15.938;2023-02-28T12:35:52;100302.36;;;19.09;50.70
74466;BME280;62916;50.044;15.938;2023-02-28T12:38:28;100303.31;;;19.07;50.76
74466;BME280;62916;50.044;15.938;2023-02-28T12:41:02;100299.71;;;19.06;50.74
74466;BME280;62916;50.044;15.938;2023-02-28T12:43:36;100300.67;;;19.06;50.75
74466;BME280;62916;50.044;15.938;2023-02-28T12:46:12;100299.66;;;19.05;50.80
74466;BME280;62916;50.044;15.938;2023-02-28T12:48:48;100303.44;;;19.03;50.73
74466;BME280;62916;50.044;15.938;2023-02-28T12:51:21;100302.54;;;19.01;50.76
74466;BME280;62916;50.044;15.938;2023-02-28T12:54:01;100303.10;;;19.00;50.88
74466;BME280;62916;50.044;15.938;2023-02-28T12:56:42;100296.96;;;19.00;50.83
74466;BME280;62916;50.044;15.938;2023-02-28T12:59:22;100288.98;;;18.94;50.74
74466;BME280;62916;50.044;15.938;2023-02-28T13:02:33;100296.28;;;18.97;50.78
74466;BME280;62916;50.044;15.938;2023-02-28T13:05:33;100291.56;;;18.93;50.90
74466;BME280;62916;50.044;15.938;2023-02-28T13:08:27;100291.33;;;18.94;50.79
74466;BME280;62916;50.044;15.938;2023-02-28T13:11:05;100273.98;;;18.83;50.83
74466;BME280;62916;50.044;15.938;2023-02-28T13:13:49;100287.48;;;18.92;50.80
74466;BME280;62916;50.044;15.938;2023-02-28T13:16:27;100284.66;;;18.90;50.79
74466;BME280;62916;50.044;15.938;2023-02-28T13:19:16;100283.81;;;18.88;50.78
74466;BME280;62916;50.044;15.938;2023-02-28T13:21:46;100282.69;;;18.86;50.87
74466;BME280;62916;50.044;15.938;2023-02-28T13:24:42;100279.30;;;18.84;50.76
74466;BME280;62916;50.044;15.938;2023-02-28T13:27:35;100282.30;;;18.81;50.94